Grand Bay, Canada
Current Conditions -  °F | °C
As of 8:00 PM on Friday 24 Oct 2014 (Local Time) from CYSJ Reporting Station
Drizzle Drizzle  
Wind Chill: 38°   Ceiling: 500
Heat Index: 45°   Visibility: 4mi
Dew Point: 45°   Wind: 15mph
Humidity: 100%   Direction: 360°N
Pressure: 29.54"   Gusts: 23mph
Location:  45.3°N, 66.2°W
Report Text: CYSJ 242300Z 36013G20KT 4SM -DZ BR OVC005 07/07 A2954 RMK SF8 SLP006
Loading
Personal Weather Stations






























Interactive Weather Map
Tropical Storm Tracking
New forecast layout! Learn more

10-Day Weather Forecast

Advertisements
Track Severe Weather on mobile